sensor_id;sensor_type;location;lat;lon;timestamp;temperature;humidity
32877;DHT22;19226;51.600;8.034;2023-02-28T00:00:06;1.60;99.90
32877;DHT22;19226;51.600;8.034;2023-02-28T00:02:54;1.70;99.90
32877;DHT22;19226;51.600;8.034;2023-02-28T00:05:39;1.60;99.90
32877;DHT22;19226;51.600;8.034;2023-02-28T00:08:24;1.60;99.90
32877;DHT22;19226;51.600;8.034;2023-02-28T00:11:11;1.60;99.90
32877;DHT22;19226;51.600;8.034;2023-02-28T00:13:56;1.60;99.90
32877;DHT22;19226;51.600;8.034;2023-02-28T00:16:40;1.60;99.90
32877;DHT22;19226;51.600;8.034;2023-02-28T00:19:25;1.60;99.90
32877;DHT22;19226;51.600;8.034;2023-02-28T00:22:10;1.60;99.90
32877;DHT22;19226;51.600;8.034;2023-02-28T00:24:54;1.50;99.90
32877;DHT22;19226;51.600;8.034;2023-02-28T00:27:41;1.60;99.90
32877;DHT22;19226;51.600;8.034;2023-02-28T00:30:26;1.50;99.90
32877;DHT22;19226;51.600;8.034;2023-02-28T00:33:11;1.50;99.90
32877;DHT22;19226;51.600;8.034;2023-02-28T00:36:11;1.50;99.90
32877;DHT22;19226;51.600;8.034;2023-02-28T00:38:56;1.50;99.90
32877;DHT22;19226;51.600;8.034;2023-02-28T00:41:41;1.50;99.90
32877;DHT22;19226;51.600;8.034;2023-02-28T00:44:25;1.50;99.90
32877;DHT22;19226;51.600;8.034;2023-02-28T00:47:10;1.40;99.90
32877;DHT22;19226;51.600;8.034;2023-02-28T00:49:55;1.40;99.90
32877;DHT22;19226;51.600;8.034;2023-02-28T00:52:40;1.40;99.90
32877;DHT22;19226;51.600;8.034;2023-02-28T00:55:24;1.30;99.90
32877;DHT22;19226;51.600;8.034;2023-02-28T00:58:09;1.30;99.90
32877;DHT22;19226;51.600;8.034;2023-02-28T01:00:53;1.20;99.90
32877;DHT22;19226;51.600;8.034;2023-02-28T01:03:38;1.10;99.90
32877;DHT22;19226;51.600;8.034;2023-02-28T01:06:23;1.10;99.90
32877;DHT22;19226;51.600;8.034;2023-02-28T01:09:08;1.00;99.90
32877;DHT22;19226;51.600;8.034;2023-02-28T01:11:53;0.90;99.90
32877;DHT22;19226;51.600;8.034;2023-02-28T01:14:38;0.90;99.90
32877;DHT22;19226;51.600;8.034;2023-02-28T01:17:25;1.00;99.90
32877;DHT22;19226;51.600;8.034;2023-02-28T01:20:10;0.90;99.90
32877;DHT22;19226;51.600;8.034;2023-02-28T01:22:55;0.90;99.90
32877;DHT22;19226;51.600;8.034;2023-02-28T01:25:40;0.90;99.90
32877;DHT22;19226;51.600;8.034;2023-02-28T01:28:25;0.90;99.90
32877;DHT22;19226;51.600;8.034;2023-02-28T01:31:10;0.90;99.90
32877;DHT22;19226;51.600;8.034;2023-02-28T01:33:55;0.90;99.90
32877;DHT22;19226;51.600;8.034;2023-02-28T01:36:40;1.00;99.90
32877;DHT22;19226;51.600;8.034;2023-02-28T01:39:25;0.90;99.90
32877;DHT22;19226;51.600;8.034;2023-02-28T01:42:13;0.90;99.90
32877;DHT22;19226;51.600;8.034;2023-02-28T01:47:44;0.90;99.90
32877;DHT22;19226;51.600;8.034;2023-02-28T01:50:36;0.80;99.90
32877;DHT22;19226;51.600;8.034;2023-02-28T01:53:29;0.80;99.90
32877;DHT22;19226;51.600;8.034;2023-02-28T01:56:20;0.80;99.90
32877;DHT22;19226;51.600;8.034;2023-02-28T01:59:12;0.70;99.90
32877;DHT22;19226;51.600;8.034;2023-02-28T02:01:58;0.70;99.90
32877;DHT22;19226;51.600;8.034;2023-02-28T02:04:54;0.60;99.90
32877;DHT22;19226;51.600;8.034;2023-02-28T02:07:42;0.60;99.90
32877;DHT22;19226;51.600;8.034;2023-02-28T02:11:18;0.50;99.90
32877;DHT22;19226;51.600;8.034;2023-02-28T02:17:14;0.40;99.90
32877;DHT22;19226;51.600;8.034;2023-02-28T02:20:35;0.40;99.90
32877;DHT22;19226;51.600;8.034;2023-02-28T02:23:49;0.40;99.90
32877;DHT22;19226;51.600;8.034;2023-02-28T02:26:52;0.40;99.90
32877;DHT22;19226;51.600;8.034;2023-02-28T02:33:18;0.40;99.90
32877;DHT22;19226;51.600;8.034;2023-02-28T02:36:17;0.40;99.90
32877;DHT22;19226;51.600;8.034;2023-02-28T02:39:14;0.40;99.90
32877;DHT22;19226;51.600;8.034;2023-02-28T02:42:27;0.30;99.90
32877;DHT22;19226;51.600;8.034;2023-02-28T02:48:12;0.30;99.90
32877;DHT22;19226;51.600;8.034;2023-02-28T02:51:03;0.30;99.90
32877;DHT22;19226;51.600;8.034;2023-02-28T02:54:13;0.30;99.90
32877;DHT22;19226;51.600;8.034;2023-02-28T02:57:05;0.30;99.90
32877;DHT22;19226;51.600;8.034;2023-02-28T02:59:54;0.30;99.90
32877;DHT22;19226;51.600;8.034;2023-02-28T03:02:41;0.30;99.90
32877;DHT22;19226;51.600;8.034;2023-02-28T03:05:34;0.30;99.90
32877;DHT22;19226;51.600;8.034;2023-02-28T03:08:19;0.30;99.90
32877;DHT22;19226;51.600;8.034;2023-02-28T03:11:10;0.30;99.90
32877;DHT22;19226;51.600;8.034;2023-02-28T03:14:30;0.20;99.90
32877;DHT22;19226;51.600;8.034;2023-02-28T03:20:55;0.20;99.90
32877;DHT22;19226;51.600;8.034;2023-02-28T03:24:27;0.20;99.90
32877;DHT22;19226;51.600;8.034;2023-02-28T03:27:29;0.10;99.90
32877;DHT22;19226;51.600;8.034;2023-02-28T03:30:38;0.10;99.90
32877;DHT22;19226;51.600;8.034;2023-02-28T03:33:25;0.10;99.90
32877;DHT22;19226;51.600;8.034;2023-02-28T03:36:15;0.00;99.90
32877;DHT22;19226;51.600;8.034;2023-02-28T03:39:09;-0.10;99.90
32877;DHT22;19226;51.600;8.034;2023-02-28T03:42:00;-0.10;99.90
32877;DHT22;19226;51.600;8.034;2023-02-28T03:44:51;-0.10;99.90
32877;DHT22;19226;51.600;8.034;2023-02-28T03:47:49;-0.20;99.90
32877;DHT22;19226;51.600;8.034;2023-02-28T03:50:40;-0.20;99.90
32877;DHT22;19226;51.600;8.034;2023-02-28T03:53:38;-0.20;99.90
32877;DHT22;19226;51.600;8.034;2023-02-28T03:56:34;-0.20;99.90
32877;DHT22;19226;51.600;8.034;2023-02-28T03:59:39;-0.20;99.90
32877;DHT22;19226;51.600;8.034;2023-02-28T04:02:27;-0.20;99.90
32877;DHT22;19226;51.600;8.034;2023-02-28T04:05:12;-0.20;99.90
32877;DHT22;19226;51.600;8.034;2023-02-28T04:08:14;-0.20;99.90
32877;DHT22;19226;51.600;8.034;2023-02-28T04:11:14;-0.30;99.90
32877;DHT22;19226;51.600;8.034;2023-02-28T04:14:02;-0.40;99.90
32877;DHT22;19226;51.600;8.034;2023-02-28T04:16:46;-0.60;99.90
32877;DHT22;19226;51.600;8.034;2023-02-28T04:19:31;-0.70;99.90
32877;DHT22;19226;51.600;8.034;2023-02-28T04:22:16;-0.90;99.90
32877;DHT22;19226;51.600;8.034;2023-02-28T04:25:02;-1.00;99.90
32877;DHT22;19226;51.600;8.034;2023-02-28T04:27:46;-0.90;99.90
32877;DHT22;19226;51.600;8.034;2023-02-28T04:30:31;-0.80;99.90
32877;DHT22;19226;51.600;8.034;2023-02-28T04:33:17;-0.70;99.90
32877;DHT22;19226;51.600;8.034;2023-02-28T04:36:07;-0.70;99.90
32877;DHT22;19226;51.600;8.034;2023-02-28T04:38:56;-0.70;99.90
32877;DHT22;19226;51.600;8.034;2023-02-28T04:41:42;-0.60;99.90
32877;DHT22;19226;51.600;8.034;2023-02-28T04:44:27;-0.70;99.90
32877;DHT22;19226;51.600;8.034;2023-02-28T04:47:11;-0.70;99.90
32877;DHT22;19226;51.600;8.034;2023-02-28T04:49:56;-0.70;99.90
32877;DHT22;19226;51.600;8.034;2023-02-28T04:52:40;-0.70;99.90
32877;DHT22;19226;51.600;8.034;2023-02-28T04:55:25;-0.70;99.90
32877;DHT22;19226;51.600;8.034;2023-02-28T04:58:10;-0.70;99.90
32877;DHT22;19226;51.600;8.034;2023-02-28T05:01:02;-0.70;99.90
32877;DHT22;19226;51.600;8.034;2023-02-28T05:03:47;-0.70;99.90
32877;DHT22;19226;51.600;8.034;2023-02-28T05:06:33;-0.80;99.90
32877;DHT22;19226;51.600;8.034;2023-02-28T05:09:17;-0.80;99.90
32877;DHT22;19226;51.600;8.034;2023-02-28T05:12:02;-0.80;99.90
32877;DHT22;19226;51.600;8.034;2023-02-28T05:14:47;-0.80;99.90
32877;DHT22;19226;51.600;8.034;2023-02-28T05:17:32;-0.80;99.90
32877;DHT22;19226;51.600;8.034;2023-02-28T05:20:17;-0.90;99.90
32877;DHT22;19226;51.600;8.034;2023-02-28T05:23:01;-0.90;99.90
32877;DHT22;19226;51.600;8.034;2023-02-28T05:25:47;-1.00;99.90
32877;DHT22;19226;51.600;8.034;2023-02-28T05:28:32;-1.00;99.90
32877;DHT22;19226;51.600;8.034;2023-02-28T05:31:16;-1.00;99.90
32877;DHT22;19226;51.600;8.034;2023-02-28T05:34:01;-1.10;99.90
32877;DHT22;19226;51.600;8.034;2023-02-28T05:36:48;-1.10;99.90
32877;DHT22;19226;51.600;8.034;2023-02-28T05:39:32;-1.10;99.90
32877;DHT22;19226;51.600;8.034;2023-02-28T05:42:17;-1.10;99.90
32877;DHT22;19226;51.600;8.034;2023-02-28T05:45:03;-1.10;99.90
32877;DHT22;19226;51.600;8.034;2023-02-28T05:47:47;-1.20;99.90
32877;DHT22;19226;51.600;8.034;2023-02-28T05:50:32;-1.20;99.90
32877;DHT22;19226;51.600;8.034;2023-02-28T05:53:17;-1.20;99.90
32877;DHT22;19226;51.600;8.034;2023-02-28T05:56:01;-1.20;99.90
32877;DHT22;19226;51.600;8.034;2023-02-28T05:58:46;-1.30;99.90
32877;DHT22;19226;51.600;8.034;2023-02-28T06:01:39;-1.30;99.90
32877;DHT22;19226;51.600;8.034;2023-02-28T06:04:23;-1.30;99.90
32877;DHT22;19226;51.600;8.034;2023-02-28T06:07:08;-1.30;99.90
32877;DHT22;19226;51.600;8.034;2023-02-28T06:09:53;-1.30;99.90
32877;DHT22;19226;51.600;8.034;2023-02-28T06:12:38;-1.30;99.90
32877;DHT22;19226;51.600;8.034;2023-02-28T06:15:22;-1.30;99.90
32877;DHT22;19226;51.600;8.034;2023-02-28T06:18:07;-1.40;99.90
32877;DHT22;19226;51.600;8.034;2023-02-28T06:20:55;-1.40;99.90
32877;DHT22;19226;51.600;8.034;2023-02-28T06:23:40;-1.40;99.90
32877;DHT22;19226;51.600;8.034;2023-02-28T06:26:25;-1.50;99.90
32877;DHT22;19226;51.600;8.034;2023-02-28T06:29:10;-1.50;99.90
32877;DHT22;19226;51.600;8.034;2023-02-28T06:31:55;-1.50;99.90
32877;DHT22;19226;51.600;8.034;2023-02-28T06:34:40;-1.60;99.90
32877;DHT22;19226;51.600;8.034;2023-02-28T06:37:24;-1.50;99.90
32877;DHT22;19226;51.600;8.034;2023-02-28T06:40:11;-1.50;99.90
32877;DHT22;19226;51.600;8.034;2023-02-28T06:42:57;-1.60;99.90
32877;DHT22;19226;51.600;8.034;2023-02-28T06:45:43;-1.60;99.90
32877;DHT22;19226;51.600;8.034;2023-02-28T06:48:28;-1.60;99.90
32877;DHT22;19226;51.600;8.034;2023-02-28T06:51:15;-1.60;99.90
32877;DHT22;19226;51.600;8.034;2023-02-28T06:54:00;-1.60;99.90
32877;DHT22;19226;51.600;8.034;2023-02-28T06:56:44;-1.60;99.90
32877;DHT22;19226;51.600;8.034;2023-02-28T06:59:28;-1.60;99.90
32877;DHT22;19226;51.600;8.034;2023-02-28T07:02:13;-1.50;99.90
32877;DHT22;19226;51.600;8.034;2023-02-28T07:04:57;-1.50;99.90
32877;DHT22;19226;51.600;8.034;2023-02-28T07:07:42;-1.50;99.90
32877;DHT22;19226;51.600;8.034;2023-02-28T07:10:29;-1.40;99.90
32877;DHT22;19226;51.600;8.034;2023-02-28T07:13:14;-1.40;99.90
32877;DHT22;19226;51.600;8.034;2023-02-28T07:16:00;-1.40;99.90
32877;DHT22;19226;51.600;8.034;2023-02-28T07:18:45;-1.30;99.90
32877;DHT22;19226;51.600;8.034;2023-02-28T07:21:29;-1.40;99.90
32877;DHT22;19226;51.600;8.034;2023-02-28T07:24:14;-1.30;99.90
32877;DHT22;19226;51.600;8.034;2023-02-28T07:27:00;-1.30;99.90
32877;DHT22;19226;51.600;8.034;2023-02-28T07:29:45;-1.30;99.90
32877;DHT22;19226;51.600;8.034;2023-02-28T07:32:30;-1.30;99.90
32877;DHT22;19226;51.600;8.034;2023-02-28T07:35:15;-1.40;99.90
32877;DHT22;19226;51.600;8.034;2023-02-28T07:38:00;-1.50;99.90
32877;DHT22;19226;51.600;8.034;2023-02-28T07:40:45;-1.50;99.90
32877;DHT22;19226;51.600;8.034;2023-02-28T07:43:31;-1.40;99.90
32877;DHT22;19226;51.600;8.034;2023-02-28T07:46:16;-1.30;99.90
32877;DHT22;19226;51.600;8.034;2023-02-28T07:49:01;-1.20;99.90
32877;DHT22;19226;51.600;8.034;2023-02-28T07:51:47;-1.10;99.90
32877;DHT22;19226;51.600;8.034;2023-02-28T07:54:32;-1.00;99.90
32877;DHT22;19226;51.600;8.034;2023-02-28T07:57:17;-0.90;99.90
32877;DHT22;19226;51.600;8.034;2023-02-28T08:00:04;-0.80;99.90
32877;DHT22;19226;51.600;8.034;2023-02-28T08:02:55;-0.70;99.90
32877;DHT22;19226;51.600;8.034;2023-02-28T08:05:40;-0.70;99.90
32877;DHT22;19226;51.600;8.034;2023-02-28T08:08:24;-0.60;99.90
32877;DHT22;19226;51.600;8.034;2023-02-28T08:11:13;-0.50;99.90
32877;DHT22;19226;51.600;8.034;2023-02-28T08:13:58;-0.40;99.90
32877;DHT22;19226;51.600;8.034;2023-02-28T08:16:43;-0.30;99.90
32877;DHT22;19226;51.600;8.034;2023-02-28T08:19:28;-0.20;99.90
32877;DHT22;19226;51.600;8.034;2023-02-28T08:22:13;-0.10;99.90
32877;DHT22;19226;51.600;8.034;2023-02-28T08:24:58;0.00;99.90
32877;DHT22;19226;51.600;8.034;2023-02-28T08:27:42;0.20;99.90
32877;DHT22;19226;51.600;8.034;2023-02-28T08:30:27;0.20;99.90
32877;DHT22;19226;51.600;8.034;2023-02-28T08:33:12;0.40;99.90
32877;DHT22;19226;51.600;8.034;2023-02-28T08:35:56;0.50;99.90
32877;DHT22;19226;51.600;8.034;2023-02-28T08:38:44;0.60;99.90
32877;DHT22;19226;51.600;8.034;2023-02-28T08:41:28;0.70;99.90
32877;DHT22;19226;51.600;8.034;2023-02-28T08:44:13;0.90;99.90
32877;DHT22;19226;51.600;8.034;2023-02-28T08:46:58;1.00;99.90
32877;DHT22;19226;51.600;8.034;2023-02-28T08:49:42;1.10;99.90
32877;DHT22;19226;51.600;8.034;2023-02-28T08:52:27;1.20;99.90
32877;DHT22;19226;51.600;8.034;2023-02-28T08:55:11;1.40;99.90
32877;DHT22;19226;51.600;8.034;2023-02-28T08:57:55;1.50;99.90
32877;DHT22;19226;51.600;8.034;2023-02-28T09:00:41;1.60;99.90
32877;DHT22;19226;51.600;8.034;2023-02-28T09:03:26;1.60;99.90
32877;DHT22;19226;51.600;8.034;2023-02-28T09:06:15;1.70;99.90
32877;DHT22;19226;51.600;8.034;2023-02-28T09:09:00;1.70;99.90
32877;DHT22;19226;51.600;8.034;2023-02-28T09:11:45;1.90;99.90
32877;DHT22;19226;51.600;8.034;2023-02-28T09:14:30;2.00;99.90
32877;DHT22;19226;51.600;8.034;2023-02-28T09:17:15;2.10;99.90
32877;DHT22;19226;51.600;8.034;2023-02-28T09:19:59;2.20;99.90
32877;DHT22;19226;51.600;8.034;2023-02-28T09:22:44;2.40;99.90
32877;DHT22;19226;51.600;8.034;2023-02-28T09:25:28;2.50;99.90
32877;DHT22;19226;51.600;8.034;2023-02-28T09:28:13;2.70;99.90
32877;DHT22;19226;51.600;8.034;2023-02-28T09:31:00;2.90;99.90
32877;DHT22;19226;51.600;8.034;2023-02-28T09:33:45;3.00;99.90
32877;DHT22;19226;51.600;8.034;2023-02-28T09:36:30;3.10;99.90
32877;DHT22;19226;51.600;8.034;2023-02-28T09:39:15;3.20;99.90
32877;DHT22;19226;51.600;8.034;2023-02-28T09:42:02;3.40;99.90
32877;DHT22;19226;51.600;8.034;2023-02-28T09:44:48;3.60;99.90
32877;DHT22;19226;51.600;8.034;2023-02-28T09:47:45;3.70;99.90
32877;DHT22;19226;51.600;8.034;2023-02-28T09:50:40;3.70;99.90
32877;DHT22;19226;51.600;8.034;2023-02-28T09:53:32;3.80;99.90
32877;DHT22;19226;51.600;8.034;2023-02-28T09:56:24;3.80;99.90
32877;DHT22;19226;51.600;8.034;2023-02-28T10:05:16;4.10;99.90
32877;DHT22;19226;51.600;8.034;2023-02-28T10:11:07;4.20;99.90
32877;DHT22;19226;51.600;8.034;2023-02-28T10:14:01;4.30;99.90
32877;DHT22;19226;51.600;8.034;2023-02-28T10:17:11;4.50;99.90
32877;DHT22;19226;51.600;8.034;2023-02-28T10:20:09;4.60;99.90
32877;DHT22;19226;51.600;8.034;2023-02-28T10:25:58;4.90;99.90
32877;DHT22;19226;51.600;8.034;2023-02-28T10:28:44;5.00;99.90
32877;DHT22;19226;51.600;8.034;2023-02-28T10:31:29;5.10;99.90
32877;DHT22;19226;51.600;8.034;2023-02-28T10:34:14;5.20;99.90
32877;DHT22;19226;51.600;8.034;2023-02-28T10:36:59;5.30;99.90
32877;DHT22;19226;51.600;8.034;2023-02-28T10:39:54;5.50;99.90
32877;DHT22;19226;51.600;8.034;2023-02-28T10:42:38;5.50;99.90
32877;DHT22;19226;51.600;8.034;2023-02-28T10:45:24;5.50;99.90
32877;DHT22;19226;51.600;8.034;2023-02-28T10:51:03;5.70;99.90
32877;DHT22;19226;51.600;8.034;2023-02-28T10:53:52;5.70;99.90
32877;DHT22;19226;51.600;8.034;2023-02-28T10:56:37;5.80;99.90
32877;DHT22;19226;51.600;8.034;2023-02-28T10:59:30;6.00;99.90
32877;DHT22;19226;51.600;8.034;2023-02-28T11:02:35;6.00;99.90
32877;DHT22;19226;51.600;8.034;2023-02-28T11:05:44;6.10;99.90
32877;DHT22;19226;51.600;8.034;2023-02-28T11:08:29;6.10;99.90
32877;DHT22;19226;51.600;8.034;2023-02-28T11:11:15;6.10;99.90
32877;DHT22;19226;51.600;8.034;2023-02-28T11:14:06;6.20;99.90
32877;DHT22;19226;51.600;8.034;2023-02-28T11:17:11;6.20;99.90
32877;DHT22;19226;51.600;8.034;2023-02-28T11:20:17;6.30;99.90
32877;DHT22;19226;51.600;8.034;2023-02-28T11:23:04;6.40;99.90
32877;DHT22;19226;51.600;8.034;2023-02-28T11:25:52;6.50;99.90
32877;DHT22;19226;51.600;8.034;2023-02-28T11:28:41;6.50;99.90
32877;DHT22;19226;51.600;8.034;2023-02-28T11:31:25;6.50;99.90
32877;DHT22;19226;51.600;8.034;2023-02-28T11:34:24;6.40;99.90
32877;DHT22;19226;51.600;8.034;2023-02-28T11:37:15;6.50;99.90
32877;DHT22;19226;51.600;8.034;2023-02-28T11:40:00;6.40;99.90
32877;DHT22;19226;51.600;8.034;2023-02-28T11:42:57;6.40;99.90
32877;DHT22;19226;51.600;8.034;2023-02-28T11:49:07;6.40;99.90
32877;DHT22;19226;51.600;8.034;2023-02-28T12:03:49;6.30;99.90
32877;DHT22;19226;51.600;8.034;2023-02-28T12:10:09;6.50;99.90
32877;DHT22;19226;51.600;8.034;2023-02-28T12:13:24;6.40;99.90
32877;DHT22;19226;51.600;8.034;2023-02-28T12:16:22;6.50;99.90
32877;DHT22;19226;51.600;8.034;2023-02-28T12:19:19;6.50;99.90
32877;DHT22;19226;51.600;8.034;2023-02-28T12:28:01;6.80;99.90
32877;DHT22;19226;51.600;8.034;2023-02-28T12:30:58;7.00;99.90
32877;DHT22;19226;51.600;8.034;2023-02-28T12:33:51;7.00;99.90
32877;DHT22;19226;51.600;8.034;2023-02-28T12:36:37;7.10;99.90
32877;DHT22;19226;51.600;8.034;2023-02-28T12:39:31;7.10;99.90
32877;DHT22;19226;51.600;8.034;2023-02-28T12:42:28;7.10;99.90
32877;DHT22;19226;51.600;8.034;2023-02-28T12:51:16;7.30;99.90
32877;DHT22;19226;51.600;8.034;2023-02-28T12:57:14;7.70;99.90
32877;DHT22;19226;51.600;8.034;2023-02-28T13:00:21;7.70;99.90
32877;DHT22;19226;51.600;8.034;2023-02-28T13:09:30;7.50;99.90
32877;DHT22;19226;51.600;8.034;2023-02-28T13:12:16;7.40;99.90
32877;DHT22;19226;51.600;8.034;2023-02-28T13:15:16;7.40;99.90
32877;DHT22;19226;51.600;8.034;2023-02-28T13:18:20;7.40;99.90
32877;DHT22;19226;51.600;8.034;2023-02-28T13:21:24;7.50;99.90
32877;DHT22;19226;51.600;8.034;2023-02-28T13:24:11;7.50;99.90
32877;DHT22;19226;51.600;8.034;2023-02-28T13:30:01;7.50;99.90
32877;DHT22;19226;51.600;8.034;2023-02-28T13:32:46;7.60;99.90
32877;DHT22;19226;51.600;8.034;2023-02-28T13:35:37;7.70;99.90
32877;DHT22;19226;51.600;8.034;2023-02-28T13:38:25;7.70;99.90
32877;DHT22;19226;51.600;8.034;2023-02-28T13:49:42;7.90;99.90
32877;DHT22;19226;51.600;8.034;2023-02-28T13:52:27;7.90;99.90
32877;DHT22;19226;51.600;8.034;2023-02-28T13:58:43;8.10;99.90
32877;DHT22;19226;51.600;8.034;2023-02-28T14:04:48;8.20;99.90
32877;DHT22;19226;51.600;8.034;2023-02-28T14:07:48;8.30;99.90
32877;DHT22;19226;51.600;8.034;2023-02-28T14:10:39;8.30;99.90
32877;DHT22;19226;51.600;8.034;2023-02-28T14:13:45;8.30;99.90
32877;DHT22;19226;51.600;8.034;2023-02-28T14:16:45;8.30;99.90
32877;DHT22;19226;51.600;8.034;2023-02-28T14:19:32;8.30;99.90
32877;DHT22;19226;51.600;8.034;2023-02-28T14:31:24;8.50;99.90
32877;DHT22;19226;51.600;8.034;2023-02-28T14:37:29;8.60;99.90
32877;DHT22;19226;51.600;8.034;2023-02-28T14:40:19;8.60;99.90
32877;DHT22;19226;51.600;8.034;2023-02-28T14:43:16;8.70;99.90
32877;DHT22;19226;51.600;8.034;2023-02-28T14:46:04;8.90;99.90
32877;DHT22;19226;51.600;8.034;2023-02-28T14:48:51;9.10;99.90
32877;DHT22;19226;51.600;8.034;2023-02-28T14:51:35;9.10;99.90
32877;DHT22;19226;51.600;8.034;2023-02-28T14:54:21;9.20;99.90
32877;DHT22;19226;51.600;8.034;2023-02-28T15:00:30;9.30;99.90
32877;DHT22;19226;51.600;8.034;2023-02-28T15:03:33;9.50;99.90
32877;DHT22;19226;51.600;8.034;2023-02-28T15:06:18;9.30;99.90
32877;DHT22;19226;51.600;8.034;2023-02-28T15:09:16;9.40;99.90
32877;DHT22;19226;51.600;8.034;2023-02-28T15:12:01;9.30;99.90
32877;DHT22;19226;51.600;8.034;2023-02-28T15:14:46;9.20;99.90
32877;DHT22;19226;51.600;8.034;2023-02-28T15:17:31;9.40;99.90
32877;DHT22;19226;51.600;8.034;2023-02-28T15:20:16;9.30;99.90
32877;DHT22;19226;51.600;8.034;2023-02-28T15:23:02;9.10;99.90
32877;DHT22;19226;51.600;8.034;2023-02-28T15:25:47;9.10;99.90
32877;DHT22;19226;51.600;8.034;2023-02-28T15:28:32;9.10;99.90
32877;DHT22;19226;51.600;8.034;2023-02-28T15:31:25;9.20;99.90
32877;DHT22;19226;51.600;8.034;2023-02-28T15:34:22;9.10;99.90
32877;DHT22;19226;51.600;8.034;2023-02-28T15:40:40;9.30;99.90
32877;DHT22;19226;51.600;8.034;2023-02-28T15:43:26;9.60;99.90
32877;DHT22;19226;51.600;8.034;2023-02-28T15:46:13;9.40;99.90
32877;DHT22;19226;51.600;8.034;2023-02-28T15:48:58;9.30;99.90
32877;DHT22;19226;51.600;8.034;2023-02-28T15:51:43;9.30;99.90
32877;DHT22;19226;51.600;8.034;2023-02-28T15:54:33;9.10;99.90
32877;DHT22;19226;51.600;8.034;2023-02-28T15:57:27;9.10;99.90
32877;DHT22;19226;51.600;8.034;2023-02-28T16:00:15;9.10;99.90
32877;DHT22;19226;51.600;8.034;2023-02-28T16:02:59;9.10;99.90
32877;DHT22;19226;51.600;8.034;2023-02-28T16:05:44;9.20;99.90
32877;DHT22;19226;51.600;8.034;2023-02-28T16:08:29;9.30;99.90
32877;DHT22;19226;51.600;8.034;2023-02-28T16:11:13;9.10;99.90
32877;DHT22;19226;51.600;8.034;2023-02-28T16:13:58;8.90;99.90
32877;DHT22;19226;51.600;8.034;2023-02-28T16:16:45;8.80;99.90
32877;DHT22;19226;51.600;8.034;2023-02-28T16:19:30;8.60;99.90
32877;DHT22;19226;51.600;8.034;2023-02-28T16:22:15;8.40;99.90
32877;DHT22;19226;51.600;8.034;2023-02-28T16:24:59;8.20;99.90
32877;DHT22;19226;51.600;8.034;2023-02-28T16:27:47;8.00;99.90
32877;DHT22;19226;51.600;8.034;2023-02-28T16:30:33;7.90;99.90
32877;DHT22;19226;51.600;8.034;2023-02-28T16:33:18;7.70;99.90
32877;DHT22;19226;51.600;8.034;2023-02-28T16:36:02;7.70;99.90
32877;DHT22;19226;51.600;8.034;2023-02-28T16:38:47;7.60;99.90
32877;DHT22;19226;51.600;8.034;2023-02-28T16:41:34;7.60;99.90
32877;DHT22;19226;51.600;8.034;2023-02-28T16:44:30;7.50;99.90
32877;DHT22;19226;51.600;8.034;2023-02-28T16:47:15;7.30;99.90
32877;DHT22;19226;51.600;8.034;2023-02-28T16:50:00;7.30;99.90
32877;DHT22;19226;51.600;8.034;2023-02-28T16:52:45;7.20;99.90
32877;DHT22;19226;51.600;8.034;2023-02-28T16:55:29;7.20;99.90
32877;DHT22;19226;51.600;8.034;2023-02-28T16:58:16;7.00;99.90
32877;DHT22;19226;51.600;8.034;2023-02-28T17:01:02;6.90;99.90
32877;DHT22;19226;51.600;8.034;2023-02-28T17:03:47;6.90;99.90
32877;DHT22;19226;51.600;8.034;2023-02-28T17:06:32;6.90;99.90
32877;DHT22;19226;51.600;8.034;2023-02-28T17:09:19;6.80;99.90
32877;DHT22;19226;51.600;8.034;2023-02-28T17:12:04;6.70;99.90
32877;DHT22;19226;51.600;8.034;2023-02-28T17:14:48;6.70;99.90
32877;DHT22;19226;51.600;8.034;2023-02-28T17:17:33;6.70;99.90
32877;DHT22;19226;51.600;8.034;2023-02-28T17:20:20;6.50;99.90
32877;DHT22;19226;51.600;8.034;2023-02-28T17:23:06;6.40;99.90
32877;DHT22;19226;51.600;8.034;2023-02-28T17:25:51;6.30;99.90
32877;DHT22;19226;51.600;8.034;2023-02-28T17:28:38;6.20;99.90
32877;DHT22;19226;51.600;8.034;2023-02-28T17:31:24;6.10;99.90
32877;DHT22;19226;51.600;8.034;2023-02-28T17:34:10;5.90;99.90
32877;DHT22;19226;51.600;8.034;2023-02-28T17:36:54;5.90;99.90
32877;DHT22;19226;51.600;8.034;2023-02-28T17:39:39;5.80;99.90
32877;DHT22;19226;51.600;8.034;2023-02-28T17:42:24;5.70;99.90
32877;DHT22;19226;51.600;8.034;2023-02-28T17:45:09;5.60;99.90
32877;DHT22;19226;51.600;8.034;2023-02-28T17:47:53;5.50;99.90
32877;DHT22;19226;51.600;8.034;2023-02-28T17:50:38;5.40;99.90
32877;DHT22;19226;51.600;8.034;2023-02-28T17:53:22;5.30;99.90
32877;DHT22;19226;51.600;8.034;2023-02-28T17:56:20;5.20;99.90
32877;DHT22;19226;51.600;8.034;2023-02-28T17:59:05;5.20;99.90
32877;DHT22;19226;51.600;8.034;2023-02-28T18:01:49;5.10;99.90
32877;DHT22;19226;51.600;8.034;2023-02-28T18:04:33;5.00;99.90
32877;DHT22;19226;51.600;8.034;2023-02-28T18:07:19;5.00;99.90
32877;DHT22;19226;51.600;8.034;2023-02-28T18:10:07;5.00;99.90
32877;DHT22;19226;51.600;8.034;2023-02-28T18:12:55;4.80;99.90
32877;DHT22;19226;51.600;8.034;2023-02-28T18:15:39;4.80;99.90
32877;DHT22;19226;51.600;8.034;2023-02-28T18:18:24;4.80;99.90
32877;DHT22;19226;51.600;8.034;2023-02-28T18:21:10;4.80;99.90
32877;DHT22;19226;51.600;8.034;2023-02-28T18:23:56;4.60;99.90
32877;DHT22;19226;51.600;8.034;2023-02-28T18:26:41;4.50;99.90
32877;DHT22;19226;51.600;8.034;2023-02-28T18:29:27;4.50;99.90
32877;DHT22;19226;51.600;8.034;2023-02-28T18:32:12;4.40;99.90
32877;DHT22;19226;51.600;8.034;2023-02-28T18:34:57;4.30;99.90
32877;DHT22;19226;51.600;8.034;2023-02-28T18:37:41;4.40;99.90
32877;DHT22;19226;51.600;8.034;2023-02-28T18:40:26;4.20;99.90
32877;DHT22;19226;51.600;8.034;2023-02-28T18:43:11;4.20;99.90
32877;DHT22;19226;51.600;8.034;2023-02-28T18:45:55;4.10;99.90
32877;DHT22;19226;51.600;8.034;2023-02-28T18:48:40;4.10;99.90
32877;DHT22;19226;51.600;8.034;2023-02-28T18:51:25;4.00;99.90
32877;DHT22;19226;51.600;8.034;2023-02-28T18:54:11;4.00;99.90
32877;DHT22;19226;51.600;8.034;2023-02-28T18:56:58;4.00;99.90
32877;DHT22;19226;51.600;8.034;2023-02-28T18:59:42;3.90;99.90
32877;DHT22;19226;51.600;8.034;2023-02-28T19:02:27;3.80;99.90
32877;DHT22;19226;51.600;8.034;2023-02-28T19:05:12;3.70;99.90
32877;DHT22;19226;51.600;8.034;2023-02-28T19:07:56;3.70;99.90
32877;DHT22;19226;51.600;8.034;2023-02-28T19:10:42;3.60;99.90
32877;DHT22;19226;51.600;8.034;2023-02-28T19:13:27;3.60;99.90
32877;DHT22;19226;51.600;8.034;2023-02-28T19:16:13;3.50;99.90
32877;DHT22;19226;51.600;8.034;2023-02-28T19:18:58;3.50;99.90
32877;DHT22;19226;51.600;8.034;2023-02-28T19:21:42;3.50;99.90
32877;DHT22;19226;51.600;8.034;2023-02-28T19:24:30;3.50;99.90
32877;DHT22;19226;51.600;8.034;2023-02-28T19:27:15;3.40;99.90
32877;DHT22;19226;51.600;8.034;2023-02-28T19:30:00;3.40;99.90
32877;DHT22;19226;51.600;8.034;2023-02-28T19:32:47;3.30;99.90
32877;DHT22;19226;51.600;8.034;2023-02-28T19:35:31;3.30;99.90
32877;DHT22;19226;51.600;8.034;2023-02-28T19:38:16;3.30;99.90
32877;DHT22;19226;51.600;8.034;2023-02-28T19:41:02;3.30;99.90
32877;DHT22;19226;51.600;8.034;2023-02-28T19:43:47;3.20;99.90